METAR stanice u blizini

 

LYBE - Beograd / Surčin, Srbija
Ažurirano: 06/07/2020 05:30
Vedro
Vedro
 Pravac vetra JZ
Vetar: JZ 6 km/h
Temperatura: 18°C
Tačka rose: 16°C
Vlažnost: 88%
Pritisak: 1012 hPa
Pregled: Vedro
Vidljivost: greater than 10 km
2020/07/06 03:30 LYBE 060330Z 23003KT CAVOK 18/16 Q1012 NOSIG
LYBT - Beograd / Batajnica, Srbija
Ažurirano: 06/07/2020 05:30
Vedro
Vedro
 Pravac vetra JJZ
Vetar: JJZ 4 km/h
Temperatura: 15°C
Tačka rose: 13°C
Vlažnost: 88%
Pritisak: 1012 hPa
Pregled: Vedro
Vidljivost: greater than 10 km
2020/07/06 03:30 LYBT 060330Z 20002KT CAVOK 15/13 Q1012 NOSIG
LYVR - Vršac, Srbija
Ažurirano: 06/07/2020 05:30

 Pravac vetra calm
Vetar: Tišina
Vidljivost: 8 km
2020/07/06 03:30 LYVR 060330Z AUTO 00000KT 8000 0450 R19/0600D R01/P2000N BCFG NSC 15/15 Q1011
 
LYKV - Lađevci, Srbija
Ažurirano: 06/07/2020 05:30
Vedro
Vedro
 Pravac vetra calm
Vetar: Tišina
Temperatura: 16°C
Tačka rose: 16°C
Vlažnost: 100%
Pritisak: 1012 hPa
Pregled: Vedro
Vidljivost: greater than 10 km
2020/07/06 03:30 LYKV 060330Z 00000KT CAVOK 16/16 Q1012 NOSIG
LYNI - Niš, Srbija
Ažurirano: 06/07/2020 05:30
Vedro
Vedro
 Pravac vetra varies
Vetar: varies 2 km/h
Temperatura: 18°C
Tačka rose: 16°C
Vlažnost: 88%
Pritisak: 1011 hPa
Pregled: Vedro
Vidljivost: greater than 10 km
2020/07/06 03:30 LYNI 060330Z VRB01KT CAVOK 18/16 Q1011 NOSIG
BKPR - Priština, Srbija
Ažurirano: 06/07/2020 05:30
Partly Cloudy
Partly Cloudy
 Pravac vetra SSZ
Vetar: SSZ 7 km/h
Temperatura: 18°C
Tačka rose: 13°C
Vlažnost: 73%
Pritisak: 1012 hPa
Oblaci: Partly Cloudy
Vidljivost: 10 km
Cloud details: Few Clouds 914 m
Partly Cloudy 2438 m
2020/07/06 03:30 BKPR 060330Z 33004KT 9999 FEW030 SCT080 18/13 Q1012 NOSIG
 
LHPP - Pecs / Pogany, Hungary
Ažurirano: 05/07/2020 19:45
NOT Current
Vedro
Vedro
 Pravac vetra S
Vetar: S 6 km/h
Temperatura: 28°C
Heat Index: 28°C
Tačka rose: 14°C
Vlažnost: 42%
Pritisak: 1014 hPa
Pregled: Vedro
Vidljivost: greater than 10 km
2020/07/05 17:45 LHPP 051745Z 35003KT CAVOK 28/14 Q1014
LHUD - Szeged, Hungary
Ažurirano: 04/07/2019 01:45
NOT Current
Vedro
Vedro
 Pravac vetra S
Vetar: S 7 km/h
Temperatura: 18°C
Tačka rose: 13°C
Vlažnost: 73%
Pritisak: 1019 hPa
Pregled: Vedro
Vidljivost: greater than 10 km
2019/07/03 23:45 LHUD 032345Z 35004KT CAVOK 18/13 Q1019
LRTR - Timisoara, Romania
Ažurirano: 06/07/2020 05:00
Vedro
Vedro
 Pravac vetra I
Vetar: I 6 km/h
Temperatura: 16°C
Tačka rose: 16°C
Vlažnost: 100%
Pritisak: 1012 hPa
Pregled: Vedro
Vidljivost: greater than 10 km
2020/07/06 03:00 LRTR 060300Z 09003KT CAVOK 16/16 Q1012
 
LRCV - Craiova, Romania
Ažurirano: 06/07/2020 05:00
Few Clouds
Few Clouds
 Pravac vetra SI
Vetar: SI 7 km/h
Temperatura: 19°C
Tačka rose: 18°C
Vlažnost: 94%
Pritisak: 1011 hPa
Oblaci: Few Clouds
Vidljivost: 10 km
Cloud details: Few Clouds 1372 m
2020/07/06 03:00 LRCV 060300Z 05004KT 9999 FEW045CB 19/18 Q1011
LBSF - Sofia, Bulgaria
Ažurirano: 06/07/2020 05:30
Few Clouds
Few Clouds
 Pravac vetra varies
Vetar: varies 2 km/h
Temperatura: 16°C
Tačka rose: 15°C
Vlažnost: 94%
Pritisak: 1012 hPa
Oblaci: Few Clouds
Vidljivost: 6 km
Cloud details: Few Clouds 335 m
2020/07/06 03:30 LBSF 060330Z VRB01KT 6000 FEW011 16/15 Q1012 TEMPO 4000 BR
LWSK - Skoplje, Makedonija
Ažurirano: 06/07/2020 05:30
Few Clouds
Few Clouds
 Pravac vetra calm
Vetar: Tišina
Temperatura: 19°C
Tačka rose: 16°C
Vlažnost: 83%
Pritisak: 1010 hPa
Oblaci: Few Clouds
Vidljivost: 10 km
Cloud details: Few Clouds 1524 m
2020/07/06 03:30 LWSK 060330Z 00000KT 9999 FEW050 19/16 Q1010 NOSIG
 
LYPG - Podgorica, Crna Gora
Ažurirano: 06/07/2020 05:30
Vedro
Vedro
 Pravac vetra SSZ
Vetar: SSZ 13 km/h
Temperatura: 25°C
Tačka rose: 13°C
Vlažnost: 47%
Pritisak: 1008 hPa
Pregled: Vedro
Vidljivost: greater than 10 km
2020/07/06 03:30 LYPG 060330Z 34007KT 320V020 CAVOK 25/13 Q1008 NOSIG
LQSA - Sarajevo, Bosna i Hercegovina
Ažurirano: 05/07/2020 16:30
NOT Current
Mostly Cloudy
Mostly Cloudy
 Pravac vetra SSZ
Vetar: SSZ 11 km/h
Temperatura: 25°C
Tačka rose: 16°C
Vlažnost: 57%
Pritisak: 1016 hPa
Oblaci: Mostly Cloudy
Vidljivost: 10 km
Cloud details: Few Clouds 1219 m
Mostly Cloudy 1524 m
2020/07/05 14:30 LQSA 051430Z 34006KT 320V030 9999 FEW040TCU BKN050 25/16 Q1016 TEMPO SHRA
LDOS - Osijek, Hrvatksa
Ažurirano: 06/07/2020 05:30
Vedro
Vedro
 Pravac vetra ZJZ
Vetar: ZJZ 11 km/h
Temperatura: 14°C
Tačka rose: 13°C
Vlažnost: 94%
Pritisak: 1012 hPa
Pregled: Vedro
Vidljivost: greater than 10 km
2020/07/06 03:30 LDOS 060330Z 25006KT CAVOK 14/13 Q1012